sensor_id;sensor_type;location;lat;lon;timestamp;temperature;humidity
820;DHT22;392;48.838;2.322;2023-05-10T00:01:18;13.60;60.60
820;DHT22;392;48.838;2.322;2023-05-10T00:03:47;13.60;59.80
820;DHT22;392;48.838;2.322;2023-05-10T00:06:14;13.50;59.20
820;DHT22;392;48.838;2.322;2023-05-10T00:08:42;13.50;58.50
820;DHT22;392;48.838;2.322;2023-05-10T00:11:09;13.40;58.10
820;DHT22;392;48.838;2.322;2023-05-10T00:13:36;13.30;58.60
820;DHT22;392;48.838;2.322;2023-05-10T00:16:04;13.30;57.70
820;DHT22;392;48.838;2.322;2023-05-10T00:18:32;13.20;57.30
820;DHT22;392;48.838;2.322;2023-05-10T00:21:01;13.20;58.00
820;DHT22;392;48.838;2.322;2023-05-10T00:23:28;13.10;57.80
820;DHT22;392;48.838;2.322;2023-05-10T00:25:56;13.00;56.90
820;DHT22;392;48.838;2.322;2023-05-10T00:28:23;13.00;56.90
820;DHT22;392;48.838;2.322;2023-05-10T00:30:50;13.00;56.50
820;DHT22;392;48.838;2.322;2023-05-10T00:33:18;13.00;56.40
820;DHT22;392;48.838;2.322;2023-05-10T00:35:45;13.00;55.90
820;DHT22;392;48.838;2.322;2023-05-10T00:38:14;12.90;56.00
820;DHT22;392;48.838;2.322;2023-05-10T00:40:41;12.90;56.50
820;DHT22;392;48.838;2.322;2023-05-10T00:43:15;12.80;56.10
820;DHT22;392;48.838;2.322;2023-05-10T00:45:43;12.80;56.20
820;DHT22;392;48.838;2.322;2023-05-10T00:48:11;12.80;57.40
820;DHT22;392;48.838;2.322;2023-05-10T00:50:38;12.80;56.70
820;DHT22;392;48.838;2.322;2023-05-10T00:53:06;12.80;57.00
820;DHT22;392;48.838;2.322;2023-05-10T00:55:36;12.80;56.80
820;DHT22;392;48.838;2.322;2023-05-10T00:58:04;12.80;56.90
820;DHT22;392;48.838;2.322;2023-05-10T01:00:32;12.80;56.90
820;DHT22;392;48.838;2.322;2023-05-10T01:03:00;12.80;56.20
820;DHT22;392;48.838;2.322;2023-05-10T01:05:27;12.70;55.00
820;DHT22;392;48.838;2.322;2023-05-10T01:07:57;12.70;55.10
820;DHT22;392;48.838;2.322;2023-05-10T01:10:25;12.70;55.00
820;DHT22;392;48.838;2.322;2023-05-10T01:12:53;12.70;55.60
820;DHT22;392;48.838;2.322;2023-05-10T01:15:22;12.70;55.30
820;DHT22;392;48.838;2.322;2023-05-10T01:17:49;12.70;55.20
820;DHT22;392;48.838;2.322;2023-05-10T01:20:17;12.70;55.00
820;DHT22;392;48.838;2.322;2023-05-10T01:23:00;12.70;54.20
820;DHT22;392;48.838;2.322;2023-05-10T01:32:16;12.60;54.50
820;DHT22;392;48.838;2.322;2023-05-10T01:34:56;12.60;53.90
820;DHT22;392;48.838;2.322;2023-05-10T01:37:33;12.60;53.90
820;DHT22;392;48.838;2.322;2023-05-10T01:40:10;12.60;53.60
820;DHT22;392;48.838;2.322;2023-05-10T01:42:47;12.60;53.20
820;DHT22;392;48.838;2.322;2023-05-10T01:45:24;12.60;53.20
820;DHT22;392;48.838;2.322;2023-05-10T01:48:03;12.60;53.50
820;DHT22;392;48.838;2.322;2023-05-10T01:50:35;12.50;53.30
820;DHT22;392;48.838;2.322;2023-05-10T01:53:08;12.50;53.70
820;DHT22;392;48.838;2.322;2023-05-10T01:55:43;12.40;54.50
820;DHT22;392;48.838;2.322;2023-05-10T01:58:15;12.40;54.80
820;DHT22;392;48.838;2.322;2023-05-10T02:00:47;12.40;54.90
820;DHT22;392;48.838;2.322;2023-05-10T02:03:23;12.30;55.00
820;DHT22;392;48.838;2.322;2023-05-10T02:05:52;12.30;55.30
820;DHT22;392;48.838;2.322;2023-05-10T02:08:22;12.30;55.70
820;DHT22;392;48.838;2.322;2023-05-10T02:10:51;12.30;55.70
820;DHT22;392;48.838;2.322;2023-05-10T02:13:23;12.30;55.70
820;DHT22;392;48.838;2.322;2023-05-10T02:15:52;12.30;55.70
820;DHT22;392;48.838;2.322;2023-05-10T02:18:22;12.30;56.20
820;DHT22;392;48.838;2.322;2023-05-10T02:20:51;12.30;56.60
820;DHT22;392;48.838;2.322;2023-05-10T02:23:21;12.30;55.80
820;DHT22;392;48.838;2.322;2023-05-10T02:25:49;12.30;55.70
820;DHT22;392;48.838;2.322;2023-05-10T02:28:21;12.30;55.70
820;DHT22;392;48.838;2.322;2023-05-10T02:30:50;12.30;55.40
820;DHT22;392;48.838;2.322;2023-05-10T02:33:19;12.30;55.50
820;DHT22;392;48.838;2.322;2023-05-10T02:35:49;12.20;55.20
820;DHT22;392;48.838;2.322;2023-05-10T02:38:19;12.20;55.10
820;DHT22;392;48.838;2.322;2023-05-10T02:40:48;12.30;55.00
820;DHT22;392;48.838;2.322;2023-05-10T02:43:17;12.30;55.00
820;DHT22;392;48.838;2.322;2023-05-10T02:45:47;12.30;54.80
820;DHT22;392;48.838;2.322;2023-05-10T02:48:15;12.20;54.80
820;DHT22;392;48.838;2.322;2023-05-10T02:50:45;12.20;55.30
820;DHT22;392;48.838;2.322;2023-05-10T02:53:22;12.20;56.30
820;DHT22;392;48.838;2.322;2023-05-10T02:55:52;12.20;55.70
820;DHT22;392;48.838;2.322;2023-05-10T02:58:19;12.20;55.80
820;DHT22;392;48.838;2.322;2023-05-10T03:00:47;12.20;56.20
820;DHT22;392;48.838;2.322;2023-05-10T03:03:14;12.20;56.40
820;DHT22;392;48.838;2.322;2023-05-10T03:05:42;12.20;56.50
820;DHT22;392;48.838;2.322;2023-05-10T03:08:11;12.20;56.50
820;DHT22;392;48.838;2.322;2023-05-10T03:10:47;12.20;56.50
820;DHT22;392;48.838;2.322;2023-05-10T03:13:30;12.20;56.40
820;DHT22;392;48.838;2.322;2023-05-10T03:16:07;12.20;56.80
820;DHT22;392;48.838;2.322;2023-05-10T03:18:42;12.20;57.00
820;DHT22;392;48.838;2.322;2023-05-10T03:21:13;12.20;57.30
820;DHT22;392;48.838;2.322;2023-05-10T03:23:48;12.30;57.00
820;DHT22;392;48.838;2.322;2023-05-10T03:26:21;12.30;57.30
820;DHT22;392;48.838;2.322;2023-05-10T03:28:58;12.30;57.70
820;DHT22;392;48.838;2.322;2023-05-10T03:31:26;12.30;57.60
820;DHT22;392;48.838;2.322;2023-05-10T03:33:54;12.30;58.00
820;DHT22;392;48.838;2.322;2023-05-10T03:36:26;12.30;58.00
820;DHT22;392;48.838;2.322;2023-05-10T03:38:54;12.30;58.10
820;DHT22;392;48.838;2.322;2023-05-10T03:41:22;12.30;58.30
820;DHT22;392;48.838;2.322;2023-05-10T03:43:49;12.30;58.50
820;DHT22;392;48.838;2.322;2023-05-10T03:46:16;12.30;59.30
820;DHT22;392;48.838;2.322;2023-05-10T03:48:44;12.30;60.30
820;DHT22;392;48.838;2.322;2023-05-10T03:51:12;12.30;59.70
820;DHT22;392;48.838;2.322;2023-05-10T03:53:40;12.30;60.00
820;DHT22;392;48.838;2.322;2023-05-10T03:56:08;12.30;60.40
820;DHT22;392;48.838;2.322;2023-05-10T03:58:35;12.30;60.50
820;DHT22;392;48.838;2.322;2023-05-10T04:01:03;12.30;62.20
820;DHT22;392;48.838;2.322;2023-05-10T04:03:30;12.30;64.30
820;DHT22;392;48.838;2.322;2023-05-10T04:06:01;12.20;65.10
820;DHT22;392;48.838;2.322;2023-05-10T04:08:29;12.20;66.20
820;DHT22;392;48.838;2.322;2023-05-10T04:11:06;12.20;67.30
820;DHT22;392;48.838;2.322;2023-05-10T04:13:34;12.20;67.80
820;DHT22;392;48.838;2.322;2023-05-10T04:16:01;12.20;67.50
820;DHT22;392;48.838;2.322;2023-05-10T04:18:29;12.20;67.90
820;DHT22;392;48.838;2.322;2023-05-10T04:20:57;12.10;68.40
820;DHT22;392;48.838;2.322;2023-05-10T04:23:25;12.10;68.60
820;DHT22;392;48.838;2.322;2023-05-10T04:25:52;12.10;68.90
820;DHT22;392;48.838;2.322;2023-05-10T04:28:21;12.10;69.50
820;DHT22;392;48.838;2.322;2023-05-10T04:30:48;12.10;70.40
820;DHT22;392;48.838;2.322;2023-05-10T04:33:15;12.10;71.20
820;DHT22;392;48.838;2.322;2023-05-10T04:35:42;12.20;71.90
820;DHT22;392;48.838;2.322;2023-05-10T04:38:10;12.10;72.00
820;DHT22;392;48.838;2.322;2023-05-10T04:40:38;12.10;72.10
820;DHT22;392;48.838;2.322;2023-05-10T04:43:05;12.10;72.70
820;DHT22;392;48.838;2.322;2023-05-10T04:45:33;12.10;73.90
820;DHT22;392;48.838;2.322;2023-05-10T04:48:01;12.10;75.10
820;DHT22;392;48.838;2.322;2023-05-10T04:50:28;12.10;75.60
820;DHT22;392;48.838;2.322;2023-05-10T04:52:55;12.10;75.80
820;DHT22;392;48.838;2.322;2023-05-10T04:55:22;12.10;76.20
820;DHT22;392;48.838;2.322;2023-05-10T04:57:50;12.10;76.60
820;DHT22;392;48.838;2.322;2023-05-10T05:00:18;12.10;77.30
820;DHT22;392;48.838;2.322;2023-05-10T05:02:47;12.10;76.70
820;DHT22;392;48.838;2.322;2023-05-10T05:05:15;12.10;77.50
820;DHT22;392;48.838;2.322;2023-05-10T05:07:42;12.20;77.10
820;DHT22;392;48.838;2.322;2023-05-10T05:10:09;12.10;77.40
820;DHT22;392;48.838;2.322;2023-05-10T05:12:37;12.10;78.00
820;DHT22;392;48.838;2.322;2023-05-10T05:15:05;12.10;78.70
820;DHT22;392;48.838;2.322;2023-05-10T05:17:34;12.10;79.30
820;DHT22;392;48.838;2.322;2023-05-10T05:20:04;12.10;79.70
820;DHT22;392;48.838;2.322;2023-05-10T05:22:32;12.10;80.00
820;DHT22;392;48.838;2.322;2023-05-10T05:25:00;12.20;80.30
820;DHT22;392;48.838;2.322;2023-05-10T05:27:28;12.20;80.30
820;DHT22;392;48.838;2.322;2023-05-10T05:29:55;12.20;80.30
820;DHT22;392;48.838;2.322;2023-05-10T05:32:23;12.20;79.80
820;DHT22;392;48.838;2.322;2023-05-10T05:34:51;12.20;79.80
820;DHT22;392;48.838;2.322;2023-05-10T05:37:20;12.30;79.60
820;DHT22;392;48.838;2.322;2023-05-10T05:39:48;12.30;79.50
820;DHT22;392;48.838;2.322;2023-05-10T05:42:15;12.40;79.50
820;DHT22;392;48.838;2.322;2023-05-10T05:44:44;12.40;78.80
820;DHT22;392;48.838;2.322;2023-05-10T05:47:11;12.40;78.60
820;DHT22;392;48.838;2.322;2023-05-10T05:49:39;12.40;78.60
820;DHT22;392;48.838;2.322;2023-05-10T05:52:06;12.40;78.60
820;DHT22;392;48.838;2.322;2023-05-10T05:54:35;12.50;78.90
820;DHT22;392;48.838;2.322;2023-05-10T05:57:02;12.40;78.60
820;DHT22;392;48.838;2.322;2023-05-10T05:59:29;12.50;78.70
820;DHT22;392;48.838;2.322;2023-05-10T06:01:56;12.50;79.40
820;DHT22;392;48.838;2.322;2023-05-10T06:04:24;12.60;79.70
820;DHT22;392;48.838;2.322;2023-05-10T06:06:52;12.70;80.30
820;DHT22;392;48.838;2.322;2023-05-10T06:09:19;12.70;80.30
820;DHT22;392;48.838;2.322;2023-05-10T06:11:48;12.80;80.30
820;DHT22;392;48.838;2.322;2023-05-10T06:14:15;12.80;80.30
820;DHT22;392;48.838;2.322;2023-05-10T06:16:42;12.90;81.50
820;DHT22;392;48.838;2.322;2023-05-10T06:19:09;12.90;83.40
820;DHT22;392;48.838;2.322;2023-05-10T06:21:37;12.90;84.40
820;DHT22;392;48.838;2.322;2023-05-10T06:24:05;12.90;84.60
820;DHT22;392;48.838;2.322;2023-05-10T06:26:33;12.80;84.80
820;DHT22;392;48.838;2.322;2023-05-10T06:29:02;12.80;85.40
820;DHT22;392;48.838;2.322;2023-05-10T06:31:29;12.80;85.60
820;DHT22;392;48.838;2.322;2023-05-10T06:33:56;12.80;85.80
820;DHT22;392;48.838;2.322;2023-05-10T06:36:24;12.80;85.80
820;DHT22;392;48.838;2.322;2023-05-10T06:38:52;12.80;85.40
820;DHT22;392;48.838;2.322;2023-05-10T06:41:19;12.80;85.10
820;DHT22;392;48.838;2.322;2023-05-10T06:43:47;12.80;84.70
820;DHT22;392;48.838;2.322;2023-05-10T06:46:15;12.80;84.40
820;DHT22;392;48.838;2.322;2023-05-10T06:48:43;12.90;83.40
820;DHT22;392;48.838;2.322;2023-05-10T06:51:10;12.90;83.20
820;DHT22;392;48.838;2.322;2023-05-10T06:53:37;12.90;82.30
820;DHT22;392;48.838;2.322;2023-05-10T06:56:05;13.00;82.50
820;DHT22;392;48.838;2.322;2023-05-10T06:58:32;13.00;81.80
820;DHT22;392;48.838;2.322;2023-05-10T07:01:03;13.10;82.20
820;DHT22;392;48.838;2.322;2023-05-10T07:03:32;13.10;80.40
820;DHT22;392;48.838;2.322;2023-05-10T07:06:01;13.10;80.00
820;DHT22;392;48.838;2.322;2023-05-10T07:08:30;13.20;79.40
820;DHT22;392;48.838;2.322;2023-05-10T07:11:01;13.20;78.70
820;DHT22;392;48.838;2.322;2023-05-10T07:13:29;13.20;78.40
820;DHT22;392;48.838;2.322;2023-05-10T07:15:57;13.20;78.30
820;DHT22;392;48.838;2.322;2023-05-10T07:18:25;13.20;78.20
820;DHT22;392;48.838;2.322;2023-05-10T07:20:54;13.20;78.30
820;DHT22;392;48.838;2.322;2023-05-10T07:23:21;13.20;78.50
820;DHT22;392;48.838;2.322;2023-05-10T07:25:50;13.20;79.10
820;DHT22;392;48.838;2.322;2023-05-10T07:28:18;13.20;79.80
820;DHT22;392;48.838;2.322;2023-05-10T07:30:46;13.20;81.10
820;DHT22;392;48.838;2.322;2023-05-10T07:33:14;13.30;82.70
820;DHT22;392;48.838;2.322;2023-05-10T07:35:42;13.30;83.40
820;DHT22;392;48.838;2.322;2023-05-10T07:38:10;13.30;82.70
820;DHT22;392;48.838;2.322;2023-05-10T07:40:39;13.20;82.50
820;DHT22;392;48.838;2.322;2023-05-10T07:43:06;13.20;82.10
820;DHT22;392;48.838;2.322;2023-05-10T07:45:34;13.20;82.20
820;DHT22;392;48.838;2.322;2023-05-10T07:48:01;13.10;82.50
820;DHT22;392;48.838;2.322;2023-05-10T07:50:28;13.10;83.00
820;DHT22;392;48.838;2.322;2023-05-10T07:52:56;13.10;83.60
820;DHT22;392;48.838;2.322;2023-05-10T07:55:25;13.20;84.10
820;DHT22;392;48.838;2.322;2023-05-10T07:57:52;13.20;84.30
820;DHT22;392;48.838;2.322;2023-05-10T08:00:20;13.20;83.90
820;DHT22;392;48.838;2.322;2023-05-10T08:02:47;13.20;83.70
820;DHT22;392;48.838;2.322;2023-05-10T08:05:15;13.20;84.30
820;DHT22;392;48.838;2.322;2023-05-10T08:07:42;13.20;85.10
820;DHT22;392;48.838;2.322;2023-05-10T08:10:10;13.20;85.50
820;DHT22;392;48.838;2.322;2023-05-10T08:12:39;13.20;85.90
820;DHT22;392;48.838;2.322;2023-05-10T08:15:07;13.20;86.00
820;DHT22;392;48.838;2.322;2023-05-10T08:17:35;13.20;86.20
820;DHT22;392;48.838;2.322;2023-05-10T08:20:03;13.30;86.00
820;DHT22;392;48.838;2.322;2023-05-10T08:22:31;13.30;84.20
820;DHT22;392;48.838;2.322;2023-05-10T08:24:58;13.40;83.60
820;DHT22;392;48.838;2.322;2023-05-10T08:27:26;13.40;82.30
820;DHT22;392;48.838;2.322;2023-05-10T08:29:54;13.50;81.60
820;DHT22;392;48.838;2.322;2023-05-10T08:32:21;13.50;80.40
820;DHT22;392;48.838;2.322;2023-05-10T08:34:49;13.50;80.00
820;DHT22;392;48.838;2.322;2023-05-10T08:37:16;13.60;79.10
820;DHT22;392;48.838;2.322;2023-05-10T08:39:43;13.60;79.00
820;DHT22;392;48.838;2.322;2023-05-10T08:42:12;13.70;78.30
820;DHT22;392;48.838;2.322;2023-05-10T08:44:41;13.80;77.90
820;DHT22;392;48.838;2.322;2023-05-10T08:47:11;13.90;77.10
820;DHT22;392;48.838;2.322;2023-05-10T08:49:40;13.90;76.50
820;DHT22;392;48.838;2.322;2023-05-10T08:52:10;13.90;75.60
820;DHT22;392;48.838;2.322;2023-05-10T08:54:40;14.00;75.60
820;DHT22;392;48.838;2.322;2023-05-10T08:57:08;14.20;75.40
820;DHT22;392;48.838;2.322;2023-05-10T08:59:35;14.30;73.10
820;DHT22;392;48.838;2.322;2023-05-10T09:02:05;14.30;71.20
820;DHT22;392;48.838;2.322;2023-05-10T09:04:34;14.40;70.40
820;DHT22;392;48.838;2.322;2023-05-10T09:07:02;14.40;70.30
820;DHT22;392;48.838;2.322;2023-05-10T09:09:29;14.50;70.30
820;DHT22;392;48.838;2.322;2023-05-10T09:11:57;14.70;70.20
820;DHT22;392;48.838;2.322;2023-05-10T09:14:25;15.00;69.30
820;DHT22;392;48.838;2.322;2023-05-10T09:16:53;15.40;68.80
820;DHT22;392;48.838;2.322;2023-05-10T09:19:20;15.90;62.20
820;DHT22;392;48.838;2.322;2023-05-10T09:21:49;16.10;57.80
820;DHT22;392;48.838;2.322;2023-05-10T09:24:16;16.10;55.80
820;DHT22;392;48.838;2.322;2023-05-10T09:26:46;16.10;55.10
820;DHT22;392;48.838;2.322;2023-05-10T09:29:15;16.10;54.60
820;DHT22;392;48.838;2.322;2023-05-10T09:31:47;16.00;55.50
820;DHT22;392;48.838;2.322;2023-05-10T09:34:18;15.90;54.30
820;DHT22;392;48.838;2.322;2023-05-10T09:36:56;15.70;54.90
820;DHT22;392;48.838;2.322;2023-05-10T09:39:33;15.60;57.30
820;DHT22;392;48.838;2.322;2023-05-10T09:42:02;15.70;59.80
820;DHT22;392;48.838;2.322;2023-05-10T09:44:31;15.80;58.30
820;DHT22;392;48.838;2.322;2023-05-10T09:46:59;15.90;56.50
820;DHT22;392;48.838;2.322;2023-05-10T09:49:27;16.00;55.20
820;DHT22;392;48.838;2.322;2023-05-10T09:52:03;16.10;55.00
820;DHT22;392;48.838;2.322;2023-05-10T09:54:32;16.10;53.30
820;DHT22;392;48.838;2.322;2023-05-10T09:57:01;16.10;52.50
820;DHT22;392;48.838;2.322;2023-05-10T09:59:29;16.10;52.40
820;DHT22;392;48.838;2.322;2023-05-10T10:01:58;16.00;52.30
820;DHT22;392;48.838;2.322;2023-05-10T10:04:27;15.90;53.10
820;DHT22;392;48.838;2.322;2023-05-10T10:07:03;15.90;51.80
820;DHT22;392;48.838;2.322;2023-05-10T10:09:32;15.90;52.60
820;DHT22;392;48.838;2.322;2023-05-10T10:12:01;15.90;52.10
820;DHT22;392;48.838;2.322;2023-05-10T10:14:29;15.80;51.80
820;DHT22;392;48.838;2.322;2023-05-10T10:16:57;15.70;51.80
820;DHT22;392;48.838;2.322;2023-05-10T10:19:28;15.60;51.70
820;DHT22;392;48.838;2.322;2023-05-10T10:21:55;15.50;53.00
820;DHT22;392;48.838;2.322;2023-05-10T10:24:24;15.40;53.00
820;DHT22;392;48.838;2.322;2023-05-10T10:26:53;15.30;53.80
820;DHT22;392;48.838;2.322;2023-05-10T10:29:29;15.40;54.00
820;DHT22;392;48.838;2.322;2023-05-10T10:32:08;15.40;53.60
820;DHT22;392;48.838;2.322;2023-05-10T10:34:39;15.50;52.00
820;DHT22;392;48.838;2.322;2023-05-10T10:37:06;15.50;52.20
820;DHT22;392;48.838;2.322;2023-05-10T10:39:35;15.50;51.80
820;DHT22;392;48.838;2.322;2023-05-10T10:42:03;15.60;52.00
820;DHT22;392;48.838;2.322;2023-05-10T10:44:36;15.60;51.40
820;DHT22;392;48.838;2.322;2023-05-10T10:47:07;15.70;51.10
820;DHT22;392;48.838;2.322;2023-05-10T10:49:44;15.70;50.70
820;DHT22;392;48.838;2.322;2023-05-10T10:52:24;15.80;49.60
820;DHT22;392;48.838;2.322;2023-05-10T10:55:01;15.80;48.50
820;DHT22;392;48.838;2.322;2023-05-10T10:57:43;15.80;47.10
820;DHT22;392;48.838;2.322;2023-05-10T11:00:22;15.70;48.00
820;DHT22;392;48.838;2.322;2023-05-10T11:02:52;15.80;47.40
820;DHT22;392;48.838;2.322;2023-05-10T11:05:25;15.80;46.80
820;DHT22;392;48.838;2.322;2023-05-10T11:08:18;15.80;48.00
820;DHT22;392;48.838;2.322;2023-05-10T11:11:03;16.00;46.90
820;DHT22;392;48.838;2.322;2023-05-10T11:13:37;16.10;45.20
820;DHT22;392;48.838;2.322;2023-05-10T11:16:16;16.20;44.70
820;DHT22;392;48.838;2.322;2023-05-10T11:19:09;16.20;44.70
820;DHT22;392;48.838;2.322;2023-05-10T11:21:45;16.20;44.00
820;DHT22;392;48.838;2.322;2023-05-10T11:24:15;16.30;42.60
820;DHT22;392;48.838;2.322;2023-05-10T11:26:45;16.50;42.40
820;DHT22;392;48.838;2.322;2023-05-10T11:29:13;16.70;42.70
820;DHT22;392;48.838;2.322;2023-05-10T11:31:44;17.10;42.10
820;DHT22;392;48.838;2.322;2023-05-10T11:34:23;17.60;39.20
820;DHT22;392;48.838;2.322;2023-05-10T11:36:51;18.10;36.20
820;DHT22;392;48.838;2.322;2023-05-10T11:39:20;18.40;33.00
820;DHT22;392;48.838;2.322;2023-05-10T11:41:49;18.70;33.80
820;DHT22;392;48.838;2.322;2023-05-10T11:44:16;19.40;33.50
820;DHT22;392;48.838;2.322;2023-05-10T11:46:43;20.60;30.10
820;DHT22;392;48.838;2.322;2023-05-10T11:49:11;21.90;25.80
820;DHT22;392;48.838;2.322;2023-05-10T11:51:39;22.30;23.40
820;DHT22;392;48.838;2.322;2023-05-10T11:54:09;22.30;23.20
820;DHT22;392;48.838;2.322;2023-05-10T11:56:37;22.30;22.30
820;DHT22;392;48.838;2.322;2023-05-10T11:59:06;21.80;22.50
820;DHT22;392;48.838;2.322;2023-05-10T12:01:34;21.40;23.60
820;DHT22;392;48.838;2.322;2023-05-10T12:04:02;21.80;22.40
820;DHT22;392;48.838;2.322;2023-05-10T12:06:30;22.30;21.90
820;DHT22;392;48.838;2.322;2023-05-10T12:09:05;23.00;20.30
820;DHT22;392;48.838;2.322;2023-05-10T12:11:36;23.80;18.50
820;DHT22;392;48.838;2.322;2023-05-10T12:14:08;24.20;18.10
820;DHT22;392;48.838;2.322;2023-05-10T12:16:36;24.70;16.90
820;DHT22;392;48.838;2.322;2023-05-10T12:19:04;25.10;15.40
820;DHT22;392;48.838;2.322;2023-05-10T12:21:32;25.00;15.50
820;DHT22;392;48.838;2.322;2023-05-10T12:24:02;25.20;14.90
820;DHT22;392;48.838;2.322;2023-05-10T12:26:32;25.10;14.70
820;DHT22;392;48.838;2.322;2023-05-10T12:29:14;24.90;14.30
820;DHT22;392;48.838;2.322;2023-05-10T12:31:50;24.00;15.10
820;DHT22;392;48.838;2.322;2023-05-10T12:34:25;23.00;17.40
820;DHT22;392;48.838;2.322;2023-05-10T12:36:54;22.40;19.30
820;DHT22;392;48.838;2.322;2023-05-10T12:39:22;22.20;19.60
820;DHT22;392;48.838;2.322;2023-05-10T12:41:50;22.80;18.70
820;DHT22;392;48.838;2.322;2023-05-10T12:44:19;23.60;18.20
820;DHT22;392;48.838;2.322;2023-05-10T12:46:46;24.60;17.50
820;DHT22;392;48.838;2.322;2023-05-10T12:49:14;25.30;16.10
820;DHT22;392;48.838;2.322;2023-05-10T12:51:42;25.30;15.00
820;DHT22;392;48.838;2.322;2023-05-10T12:54:09;24.60;16.10
820;DHT22;392;48.838;2.322;2023-05-10T12:56:37;24.20;16.60
820;DHT22;392;48.838;2.322;2023-05-10T12:59:06;24.40;17.20
820;DHT22;392;48.838;2.322;2023-05-10T13:01:35;24.60;16.60
820;DHT22;392;48.838;2.322;2023-05-10T13:04:02;24.30;17.30
820;DHT22;392;48.838;2.322;2023-05-10T13:06:29;23.60;18.20
820;DHT22;392;48.838;2.322;2023-05-10T13:08:57;23.30;19.60
820;DHT22;392;48.838;2.322;2023-05-10T13:11:25;23.60;19.20
820;DHT22;392;48.838;2.322;2023-05-10T13:13:52;24.00;17.50
820;DHT22;392;48.838;2.322;2023-05-10T13:16:19;24.30;15.80
820;DHT22;392;48.838;2.322;2023-05-10T13:18:48;24.50;13.50
820;DHT22;392;48.838;2.322;2023-05-10T13:21:15;24.60;12.60
820;DHT22;392;48.838;2.322;2023-05-10T13:23:43;24.60;11.80
820;DHT22;392;48.838;2.322;2023-05-10T13:26:10;24.60;12.10
820;DHT22;392;48.838;2.322;2023-05-10T13:28:37;24.50;11.90
820;DHT22;392;48.838;2.322;2023-05-10T13:31:05;24.30;12.40
820;DHT22;392;48.838;2.322;2023-05-10T13:33:32;24.10;12.50
820;DHT22;392;48.838;2.322;2023-05-10T13:36:01;23.90;13.20
820;DHT22;392;48.838;2.322;2023-05-10T13:38:28;23.60;14.00
820;DHT22;392;48.838;2.322;2023-05-10T13:40:55;23.50;14.30
820;DHT22;392;48.838;2.322;2023-05-10T13:43:23;23.30;14.70
820;DHT22;392;48.838;2.322;2023-05-10T13:45:51;23.10;15.00
820;DHT22;392;48.838;2.322;2023-05-10T13:48:18;22.80;15.50
820;DHT22;392;48.838;2.322;2023-05-10T13:50:46;22.70;16.10
820;DHT22;392;48.838;2.322;2023-05-10T13:53:15;22.60;16.60
820;DHT22;392;48.838;2.322;2023-05-10T13:55:42;22.60;17.40
820;DHT22;392;48.838;2.322;2023-05-10T13:58:10;22.40;17.60
820;DHT22;392;48.838;2.322;2023-05-10T14:00:37;22.30;18.20
820;DHT22;392;48.838;2.322;2023-05-10T14:03:04;22.10;18.40
820;DHT22;392;48.838;2.322;2023-05-10T14:05:34;21.90;18.90
820;DHT22;392;48.838;2.322;2023-05-10T14:08:02;21.60;19.60
820;DHT22;392;48.838;2.322;2023-05-10T14:10:31;21.20;20.70
820;DHT22;392;48.838;2.322;2023-05-10T14:12:58;21.00;21.20
820;DHT22;392;48.838;2.322;2023-05-10T14:15:26;21.00;21.80
820;DHT22;392;48.838;2.322;2023-05-10T14:17:53;21.00;21.70
820;DHT22;392;48.838;2.322;2023-05-10T14:20:21;20.90;21.80
820;DHT22;392;48.838;2.322;2023-05-10T14:22:48;20.80;21.50
820;DHT22;392;48.838;2.322;2023-05-10T14:25:16;20.70;22.10
820;DHT22;392;48.838;2.322;2023-05-10T14:27:46;20.60;21.90
820;DHT22;392;48.838;2.322;2023-05-10T14:30:14;20.50;19.60
820;DHT22;392;48.838;2.322;2023-05-10T14:32:42;20.40;17.90
820;DHT22;392;48.838;2.322;2023-05-10T14:35:09;20.40;17.70
820;DHT22;392;48.838;2.322;2023-05-10T14:37:37;20.50;17.50
820;DHT22;392;48.838;2.322;2023-05-10T14:40:06;20.50;17.50
820;DHT22;392;48.838;2.322;2023-05-10T14:42:35;20.50;16.10
820;DHT22;392;48.838;2.322;2023-05-10T14:45:05;20.40;16.00
820;DHT22;392;48.838;2.322;2023-05-10T14:47:38;20.20;14.70
820;DHT22;392;48.838;2.322;2023-05-10T14:50:11;20.10;15.30
820;DHT22;392;48.838;2.322;2023-05-10T14:52:39;20.10;15.00
820;DHT22;392;48.838;2.322;2023-05-10T14:55:07;20.00;14.90
820;DHT22;392;48.838;2.322;2023-05-10T14:57:35;20.10;15.50
820;DHT22;392;48.838;2.322;2023-05-10T15:00:05;20.00;16.20
820;DHT22;392;48.838;2.322;2023-05-10T15:02:34;20.00;16.00
820;DHT22;392;48.838;2.322;2023-05-10T15:05:01;19.90;16.80
820;DHT22;392;48.838;2.322;2023-05-10T15:07:29;19.80;17.20
820;DHT22;392;48.838;2.322;2023-05-10T15:09:57;19.70;17.40
820;DHT22;392;48.838;2.322;2023-05-10T15:12:24;19.70;17.50
820;DHT22;392;48.838;2.322;2023-05-10T15:14:52;19.70;17.40
820;DHT22;392;48.838;2.322;2023-05-10T15:17:20;19.60;16.90
820;DHT22;392;48.838;2.322;2023-05-10T15:19:51;19.70;16.70
820;DHT22;392;48.838;2.322;2023-05-10T15:22:18;19.80;16.90
820;DHT22;392;48.838;2.322;2023-05-10T15:24:47;19.90;16.90
820;DHT22;392;48.838;2.322;2023-05-10T15:27:14;20.10;16.90
820;DHT22;392;48.838;2.322;2023-05-10T15:29:42;20.30;16.20
820;DHT22;392;48.838;2.322;2023-05-10T15:32:09;20.30;16.20
820;DHT22;392;48.838;2.322;2023-05-10T15:34:38;20.30;16.70
820;DHT22;392;48.838;2.322;2023-05-10T15:37:07;20.30;17.50
820;DHT22;392;48.838;2.322;2023-05-10T15:39:35;20.30;15.80
820;DHT22;392;48.838;2.322;2023-05-10T15:42:03;20.20;15.20
820;DHT22;392;48.838;2.322;2023-05-10T15:44:31;20.10;14.80
820;DHT22;392;48.838;2.322;2023-05-10T15:47:01;19.90;15.20
820;DHT22;392;48.838;2.322;2023-05-10T15:49:29;19.80;15.60
820;DHT22;392;48.838;2.322;2023-05-10T15:51:59;19.50;16.60
820;DHT22;392;48.838;2.322;2023-05-10T15:54:27;19.40;17.40
820;DHT22;392;48.838;2.322;2023-05-10T15:56:54;19.30;17.70
820;DHT22;392;48.838;2.322;2023-05-10T15:59:22;19.20;18.10
820;DHT22;392;48.838;2.322;2023-05-10T16:01:50;19.10;18.50
820;DHT22;392;48.838;2.322;2023-05-10T16:04:19;19.10;18.90
820;DHT22;392;48.838;2.322;2023-05-10T16:06:47;19.10;18.70
820;DHT22;392;48.838;2.322;2023-05-10T16:09:16;19.00;17.90
820;DHT22;392;48.838;2.322;2023-05-10T16:11:44;19.00;18.00
820;DHT22;392;48.838;2.322;2023-05-10T16:14:12;18.90;18.10
820;DHT22;392;48.838;2.322;2023-05-10T16:16:39;18.90;18.10
820;DHT22;392;48.838;2.322;2023-05-10T16:19:08;19.10;17.70
820;DHT22;392;48.838;2.322;2023-05-10T16:21:38;19.20;17.40
820;DHT22;392;48.838;2.322;2023-05-10T16:24:05;19.20;17.70
820;DHT22;392;48.838;2.322;2023-05-10T16:26:35;19.30;18.20
820;DHT22;392;48.838;2.322;2023-05-10T16:29:06;19.20;18.60
820;DHT22;392;48.838;2.322;2023-05-10T16:31:34;19.10;18.90
820;DHT22;392;48.838;2.322;2023-05-10T16:34:01;19.00;19.20
820;DHT22;392;48.838;2.322;2023-05-10T16:36:29;19.00;19.70
820;DHT22;392;48.838;2.322;2023-05-10T16:38:57;19.00;20.00
820;DHT22;392;48.838;2.322;2023-05-10T16:41:25;19.00;20.10
820;DHT22;392;48.838;2.322;2023-05-10T16:43:54;19.00;20.20
820;DHT22;392;48.838;2.322;2023-05-10T16:46:23;19.10;20.30
820;DHT22;392;48.838;2.322;2023-05-10T16:48:53;19.10;20.40
820;DHT22;392;48.838;2.322;2023-05-10T16:51:20;19.10;20.30
820;DHT22;392;48.838;2.322;2023-05-10T16:53:52;19.20;19.90